createdAt,value
2023-04-26T00:01:39.667Z,101761.72
2023-04-26T00:04:08.849Z,101766.84
2023-04-26T00:06:37.497Z,101770.28
2023-04-26T00:09:05.365Z,101772.06
2023-04-26T00:11:32.634Z,101774.75
2023-04-26T00:14:00.051Z,101773.94
2023-04-26T00:16:27.298Z,101777.44
2023-04-26T00:18:54.807Z,101773.19
2023-04-26T00:21:22.205Z,101771.53
2023-04-26T00:23:49.483Z,101776.75
2023-04-26T00:26:16.814Z,101776.59
2023-04-26T00:28:44.033Z,101779.88
2023-04-26T00:31:15.822Z,101777.88
2023-04-26T00:33:44.088Z,101772.47
2023-04-26T00:36:12.805Z,101770.66
2023-04-26T00:38:40.035Z,101773.19
2023-04-26T00:41:07.410Z,101774.91
2023-04-26T00:43:34.627Z,101779.94
2023-04-26T00:46:01.877Z,101774.69
2023-04-26T00:48:30.542Z,101765.00
2023-04-26T00:50:57.783Z,101764.88
2023-04-26T00:53:25.177Z,101764.88
2023-04-26T00:55:53.852Z,101758.81
2023-04-26T00:58:21.627Z,101764.03
2023-04-26T01:00:50.350Z,101752.81
2023-04-26T01:03:18.113Z,101755.50
2023-04-26T01:05:45.888Z,101756.38
2023-04-26T01:08:17.159Z,101748.56
2023-04-26T01:10:44.786Z,101752.94
2023-04-26T01:13:12.966Z,101748.69
2023-04-26T01:15:47.045Z,101760.16
2023-04-26T01:18:17.989Z,101761.19
2023-04-26T01:20:46.998Z,101753.38
2023-04-26T01:23:14.158Z,101760.53
2023-04-26T01:25:41.469Z,101760.69
2023-04-26T01:28:08.772Z,101755.63
2023-04-26T01:30:36.332Z,101758.34
2023-04-26T01:33:03.829Z,101758.59
2023-04-26T01:35:31.241Z,101765.66
2023-04-26T01:37:58.473Z,101760.59
2023-04-26T01:40:25.771Z,101764.22
2023-04-26T01:42:53.035Z,101772.09
2023-04-26T01:45:20.847Z,101775.63
2023-04-26T01:48:07.129Z,101778.34
2023-04-26T01:50:34.464Z,101779.25
2023-04-26T01:53:01.713Z,101787.00
2023-04-26T01:55:29.093Z,101776.34
2023-04-26T01:57:56.491Z,101777.25
2023-04-26T02:00:24.037Z,101771.13
2023-04-26T02:02:55.124Z,101766.75
2023-04-26T02:05:24.458Z,101769.97
2023-04-26T02:07:51.788Z,101765.44
2023-04-26T02:10:18.971Z,101775.56
2023-04-26T02:12:46.246Z,101775.19
2023-04-26T02:15:13.399Z,101768.72
2023-04-26T02:17:40.979Z,101770.22
2023-04-26T02:20:11.477Z,101769.13
2023-04-26T02:22:38.794Z,101769.03
2023-04-26T02:25:07.299Z,101765.47
2023-04-26T02:27:34.523Z,101771.28
2023-04-26T02:30:01.764Z,101776.31
2023-04-26T02:32:29.814Z,101775.28
2023-04-26T02:34:57.897Z,101769.94
2023-04-26T02:37:26.900Z,101772.38
2023-04-26T02:39:54.266Z,101767.91
2023-04-26T02:42:21.640Z,101765.16
2023-04-26T02:44:48.925Z,101770.28
2023-04-26T02:47:16.842Z,101770.13
2023-04-26T02:49:48.000Z,101768.25
2023-04-26T02:52:15.257Z,101761.13
2023-04-26T02:54:42.503Z,101767.09
2023-04-26T02:57:09.977Z,101766.91
2023-04-26T02:59:37.288Z,101763.25
2023-04-26T03:02:04.673Z,101772.69
2023-04-26T03:04:36.158Z,101769.13
2023-04-26T03:07:04.011Z,101775.31
2023-04-26T03:09:31.467Z,101774.16
2023-04-26T03:11:58.869Z,101760.94
2023-04-26T03:14:27.067Z,101758.09
2023-04-26T03:16:56.304Z,101756.31
2023-04-26T03:19:23.668Z,101749.19
2023-04-26T03:21:51.031Z,101753.47
2023-04-26T03:24:18.586Z,101753.47
2023-04-26T03:26:46.364Z,101748.25
2023-04-26T03:29:14.427Z,101752.75
2023-04-26T03:31:41.912Z,101748.50
2023-04-26T03:34:09.352Z,101763.38
2023-04-26T03:36:36.834Z,101759.06
2023-04-26T03:39:06.495Z,101765.00
2023-04-26T03:41:37.007Z,101756.41
2023-04-26T03:44:06.647Z,101758.25
2023-04-26T03:46:33.949Z,101750.66
2023-04-26T03:49:01.422Z,101754.56
2023-04-26T03:51:29.449Z,101754.06
2023-04-26T03:53:56.754Z,101754.44
2023-04-26T03:56:24.102Z,101747.72
2023-04-26T03:58:51.716Z,101752.50
2023-04-26T04:01:20.335Z,101755.50
2023-04-26T04:03:47.916Z,101757.56
2023-04-26T04:06:16.807Z,101763.97
2023-04-26T04:08:44.318Z,101763.31
2023-04-26T04:11:11.633Z,101758.38
2023-04-26T04:13:40.011Z,101756.81
2023-04-26T04:16:10.234Z,101757.88
2023-04-26T04:18:37.670Z,101759.63
2023-04-26T04:21:04.890Z,101760.75
2023-04-26T04:23:32.309Z,101756.50
2023-04-26T04:26:01.455Z,101764.41
2023-04-26T04:28:29.824Z,101774.00
2023-04-26T04:30:57.245Z,101769.69
2023-04-26T04:33:28.595Z,101774.00
2023-04-26T04:35:57.583Z,101774.66
2023-04-26T04:38:26.204Z,101780.56
2023-04-26T04:40:53.891Z,101771.53
2023-04-26T04:43:21.551Z,101778.19
2023-04-26T04:45:49.456Z,101778.88
2023-04-26T04:48:16.729Z,101777.75
2023-04-26T04:50:45.281Z,101774.31
2023-04-26T04:53:12.808Z,101779.53
2023-04-26T04:55:40.232Z,101775.22
2023-04-26T04:58:08.511Z,101770.00
2023-04-26T05:00:38.193Z,101776.09
2023-04-26T05:03:24.092Z,101766.63
2023-04-26T05:05:51.912Z,101777.13
2023-04-26T05:08:19.768Z,101777.22
2023-04-26T05:10:47.360Z,101778.63
2023-04-26T05:13:15.068Z,101774.00
2023-04-26T05:15:42.334Z,101779.88
2023-04-26T05:18:10.123Z,101769.13
2023-04-26T05:20:37.547Z,101780.09
2023-04-26T05:23:05.102Z,101764.75
2023-04-26T05:25:36.472Z,101767.78
2023-04-26T05:28:16.127Z,101770.03
2023-04-26T05:31:11.457Z,101763.66
2023-04-26T05:33:57.471Z,101765.97
2023-04-26T05:36:30.679Z,101774.19
2023-04-26T05:38:57.977Z,101769.31
2023-04-26T05:41:26.794Z,101770.84
2023-04-26T05:43:54.714Z,101779.44
2023-04-26T05:46:22.292Z,101770.94
2023-04-26T05:48:50.542Z,101774.28
2023-04-26T05:51:17.846Z,101776.88
2023-04-26T05:53:45.666Z,101773.81
2023-04-26T05:56:12.989Z,101785.53
2023-04-26T05:58:40.735Z,101790.63
2023-04-26T06:01:08.780Z,101786.38
2023-04-26T06:03:37.564Z,101780.59
2023-04-26T06:06:05.520Z,101793.28
2023-04-26T06:08:33.525Z,101791.31
2023-04-26T06:11:00.818Z,101779.91
2023-04-26T06:13:28.391Z,101790.03
2023-04-26T06:15:55.804Z,101783.34
2023-04-26T06:18:23.238Z,101791.41
2023-04-26T06:20:51.294Z,101782.03
2023-04-26T06:23:20.243Z,101787.50
2023-04-26T06:25:47.729Z,101787.97
2023-04-26T06:28:15.307Z,101792.78
2023-04-26T06:30:43.295Z,101793.94
2023-04-26T06:33:10.786Z,101798.41
2023-04-26T06:35:43.260Z,101803.16
2023-04-26T06:38:12.963Z,101798.22
2023-04-26T06:40:40.412Z,101797.47
2023-04-26T06:43:08.847Z,101802.66
2023-04-26T06:45:45.504Z,101796.56
2023-04-26T06:48:13.211Z,101806.41
2023-04-26T06:50:40.563Z,101801.44
2023-04-26T06:53:08.434Z,101804.28
2023-04-26T06:55:35.870Z,101801.97
2023-04-26T06:58:03.231Z,101802.22
2023-04-26T07:00:30.620Z,101801.53
2023-04-26T07:02:58.144Z,101798.38
2023-04-26T07:05:25.739Z,101808.66
2023-04-26T07:07:53.535Z,101804.97
2023-04-26T07:10:21.229Z,101801.97
2023-04-26T07:12:48.579Z,101800.28
2023-04-26T07:15:16.011Z,101813.28
2023-04-26T07:17:43.427Z,101814.00
2023-04-26T07:20:10.926Z,101810.28
2023-04-26T07:22:38.694Z,101812.50
2023-04-26T07:25:08.060Z,101817.34
2023-04-26T07:27:35.292Z,101817.81
2023-04-26T07:30:02.656Z,101815.00
2023-04-26T07:32:29.988Z,101818.22
2023-04-26T07:34:57.482Z,101817.28
2023-04-26T07:37:24.733Z,101809.47
2023-04-26T07:39:51.912Z,101810.25
2023-04-26T07:42:19.245Z,101810.47
2023-04-26T07:44:48.336Z,101815.13
2023-04-26T07:47:15.859Z,101821.81
2023-04-26T07:49:43.331Z,101813.66
2023-04-26T07:52:11.280Z,101811.81
2023-04-26T07:54:40.303Z,101806.22
2023-04-26T07:57:07.537Z,101815.34
2023-04-26T07:59:34.791Z,101816.19
2023-04-26T08:02:02.149Z,101820.56
2023-04-26T08:04:34.565Z,101818.59
2023-04-26T08:07:02.783Z,101830.72
2023-04-26T08:09:30.868Z,101833.16
2023-04-26T08:11:58.450Z,101828.78
2023-04-26T08:14:25.976Z,101832.22
2023-04-26T08:16:53.681Z,101832.31
2023-04-26T08:19:21.546Z,101839.31
2023-04-26T08:21:48.736Z,101842.59
2023-04-26T08:24:16.120Z,101846.69
2023-04-26T08:26:43.442Z,101854.25
2023-04-26T08:29:10.643Z,101847.03
2023-04-26T08:31:39.097Z,101853.13
2023-04-26T08:34:07.003Z,101856.63
2023-04-26T08:36:39.472Z,101847.31
2023-04-26T08:39:07.057Z,101858.13
2023-04-26T08:41:37.572Z,101863.69
2023-04-26T08:44:05.710Z,101880.25
2023-04-26T08:46:51.357Z,101889.16
2023-04-26T08:49:41.547Z,101897.78
2023-04-26T08:52:11.619Z,101903.69
2023-04-26T08:54:40.671Z,101900.38
2023-04-26T08:57:08.870Z,101906.59
2023-04-26T08:59:38.466Z,101908.56
2023-04-26T09:02:07.204Z,101901.38
2023-04-26T09:04:35.419Z,101897.16
2023-04-26T09:07:04.933Z,101890.34
2023-04-26T09:09:38.449Z,101883.75
2023-04-26T09:12:05.967Z,101880.91
2023-04-26T09:14:33.287Z,101881.56
2023-04-26T09:17:00.926Z,101884.88
2023-04-26T09:19:40.107Z,101888.88
2023-04-26T09:22:07.670Z,101883.91
2023-04-26T09:24:53.060Z,101886.91
2023-04-26T09:27:21.196Z,101886.31
2023-04-26T09:30:10.631Z,101881.53
2023-04-26T09:32:48.507Z,101880.91
2023-04-26T09:35:46.348Z,101869.84
2023-04-26T09:38:18.062Z,101878.00
2023-04-26T09:40:47.644Z,101876.53
2023-04-26T09:43:20.110Z,101872.41
2023-04-26T09:45:50.353Z,101868.50
2023-04-26T09:48:22.826Z,101875.66
2023-04-26T09:50:52.999Z,101873.13
2023-04-26T09:53:36.734Z,101860.97
2023-04-26T09:56:11.460Z,101859.56
2023-04-26T09:58:58.950Z,101860.59
2023-04-26T10:01:29.892Z,101862.66
2023-04-26T10:04:00.926Z,101860.59
2023-04-26T10:06:28.643Z,101855.75
2023-04-26T10:08:57.441Z,101859.53
2023-04-26T10:11:25.320Z,101867.38
2023-04-26T10:13:52.984Z,101867.91
2023-04-26T10:16:21.588Z,101879.66
2023-04-26T10:18:49.412Z,101876.00
2023-04-26T10:21:22.738Z,101871.13
2023-04-26T10:23:50.761Z,101865.41
2023-04-26T10:26:47.282Z,101862.00
2023-04-26T10:29:14.554Z,101868.13
2023-04-26T10:32:06.791Z,101862.94
2023-04-26T10:34:36.616Z,101862.00
2023-04-26T10:37:14.817Z,101860.94
2023-04-26T10:39:43.567Z,101864.06
2023-04-26T10:42:24.784Z,101868.28
2023-04-26T10:45:00.522Z,101861.38
2023-04-26T10:47:29.684Z,101864.00
2023-04-26T10:50:11.360Z,101861.19
2023-04-26T10:52:57.840Z,101862.94
2023-04-26T10:55:41.912Z,101856.13
2023-04-26T10:58:29.032Z,101851.31
2023-04-26T11:01:16.485Z,101859.56
2023-04-26T11:04:02.026Z,101851.16
2023-04-26T11:06:50.002Z,101853.50
2023-04-26T11:09:40.891Z,101853.75
2023-04-26T11:12:12.923Z,101854.94
2023-04-26T11:14:44.568Z,101862.91
2023-04-26T11:17:12.984Z,101860.84
2023-04-26T11:19:42.121Z,101874.44
2023-04-26T11:22:09.641Z,101869.53
2023-04-26T11:24:37.158Z,101877.13
2023-04-26T11:27:12.014Z,101877.59
2023-04-26T11:29:39.561Z,101885.97
2023-04-26T11:32:07.134Z,101885.44
2023-04-26T11:34:35.768Z,101891.94
2023-04-26T11:37:05.113Z,101894.97
2023-04-26T11:39:33.653Z,101898.88
2023-04-26T11:42:08.437Z,101895.19
2023-04-26T11:44:37.419Z,101899.50
2023-04-26T11:47:06.743Z,101899.44
2023-04-26T11:49:36.834Z,101902.78
2023-04-26T11:52:05.277Z,101901.09
2023-04-26T11:54:34.536Z,101896.88
2023-04-26T11:57:14.656Z,101902.38
2023-04-26T11:59:43.598Z,101904.13
2023-04-26T12:02:12.030Z,101906.09
2023-04-26T12:04:41.316Z,101895.91
2023-04-26T12:07:09.845Z,101906.53
2023-04-26T12:09:41.729Z,101909.41
2023-04-26T12:12:09.388Z,101902.59
2023-04-26T12:14:37.686Z,101907.09
2023-04-26T12:17:06.810Z,101913.22
2023-04-26T12:19:39.732Z,101924.63
2023-04-26T12:22:08.785Z,101915.91
2023-04-26T12:24:37.453Z,101909.81
2023-04-26T12:27:07.063Z,101906.22
2023-04-26T12:29:35.500Z,101915.94
2023-04-26T12:32:04.100Z,101903.69
2023-04-26T12:34:31.629Z,101908.31
2023-04-26T12:36:58.955Z,101906.72
2023-04-26T12:39:26.253Z,101911.25
2023-04-26T12:41:53.882Z,101916.50
2023-04-26T12:44:22.522Z,101914.91
2023-04-26T12:46:51.486Z,101909.88
2023-04-26T12:49:18.729Z,101901.34
2023-04-26T12:51:46.263Z,101904.94
2023-04-26T12:54:14.061Z,101909.34
2023-04-26T12:56:44.379Z,101904.31
2023-04-26T12:59:12.067Z,101920.22
2023-04-26T13:01:39.458Z,101909.00
2023-04-26T13:04:07.014Z,101907.34
2023-04-26T13:06:35.880Z,101910.16
2023-04-26T13:09:08.499Z,101914.63
2023-04-26T13:11:35.859Z,101905.94
2023-04-26T13:14:03.488Z,101908.72
2023-04-26T13:16:31.046Z,101905.47
2023-04-26T13:18:58.648Z,101898.47
2023-04-26T13:21:26.362Z,101899.47
2023-04-26T13:23:53.606Z,101897.97
2023-04-26T13:26:20.945Z,101900.72
2023-04-26T13:28:48.675Z,101903.41
2023-04-26T13:31:17.515Z,101901.75
2023-04-26T13:33:45.650Z,101907.78
2023-04-26T13:36:12.956Z,101904.81
2023-04-26T13:38:40.792Z,101906.28
2023-04-26T13:41:10.304Z,101911.38
2023-04-26T13:43:37.608Z,101907.88
2023-04-26T13:46:05.073Z,101911.56
2023-04-26T13:48:32.790Z,101910.84
2023-04-26T13:51:00.245Z,101909.97
2023-04-26T13:53:27.626Z,101912.59
2023-04-26T13:55:54.935Z,101904.53
2023-04-26T13:58:22.548Z,101914.09
2023-04-26T14:00:49.963Z,101906.03
2023-04-26T14:03:17.435Z,101905.19
2023-04-26T14:05:44.718Z,101905.91
2023-04-26T14:08:12.799Z,101911.06
2023-04-26T14:10:40.530Z,101910.16
2023-04-26T14:13:07.984Z,101923.41
2023-04-26T14:15:35.251Z,101911.06
2023-04-26T14:18:02.639Z,101914.63
2023-04-26T14:20:29.940Z,101914.66
2023-04-26T14:22:57.456Z,101920.13
2023-04-26T14:25:24.725Z,101921.13
2023-04-26T14:27:53.504Z,101921.25
2023-04-26T14:30:21.262Z,101919.56
2023-04-26T14:32:48.717Z,101915.09
2023-04-26T14:35:16.112Z,101916.59
2023-04-26T14:37:43.441Z,101914.63
2023-04-26T14:40:11.808Z,101917.09
2023-04-26T14:42:45.547Z,101925.81
2023-04-26T14:45:13.418Z,101925.53
2023-04-26T14:47:40.843Z,101930.56
2023-04-26T14:50:09.696Z,101919.91
2023-04-26T14:52:37.782Z,101925.94
2023-04-26T14:55:05.638Z,101930.91
2023-04-26T14:57:32.985Z,101932.25
2023-04-26T15:00:07.013Z,101925.66
2023-04-26T15:02:34.677Z,101937.66
2023-04-26T15:05:05.330Z,101937.34
2023-04-26T15:07:33.210Z,101933.56
2023-04-26T15:10:01.610Z,101942.28
2023-04-26T15:12:29.206Z,101932.47
2023-04-26T15:14:56.778Z,101940.38
2023-04-26T15:17:24.062Z,101928.94
2023-04-26T15:19:51.433Z,101928.81
2023-04-26T15:22:19.059Z,101930.56
2023-04-26T15:24:46.488Z,101932.47
2023-04-26T15:27:13.815Z,101929.09
2023-04-26T15:29:41.334Z,101928.09
2023-04-26T15:32:09.416Z,101923.78
2023-04-26T15:34:43.403Z,101928.19
2023-04-26T15:37:11.268Z,101936.09
2023-04-26T15:39:38.873Z,101927.38
2023-04-26T15:42:07.113Z,101929.16
2023-04-26T15:44:34.780Z,101933.47
2023-04-26T15:47:02.430Z,101922.78
2023-04-26T15:49:29.816Z,101934.13
2023-04-26T15:51:57.209Z,101929.66
2023-04-26T15:54:26.770Z,101929.44
2023-04-26T15:56:55.289Z,101937.94
2023-04-26T15:59:22.679Z,101948.03
2023-04-26T16:01:50.115Z,101960.59
2023-04-26T16:04:17.562Z,101953.16
2023-04-26T16:06:45.009Z,101951.78
2023-04-26T16:09:24.746Z,101949.81
2023-04-26T16:11:53.104Z,101944.31
2023-04-26T16:14:20.591Z,101949.41
2023-04-26T16:16:47.935Z,101935.38
2023-04-26T16:19:16.410Z,101938.44
2023-04-26T16:21:43.705Z,101941.50
2023-04-26T16:24:11.732Z,101927.78
2023-04-26T16:26:39.562Z,101933.22
2023-04-26T16:29:06.845Z,101927.16
2023-04-26T16:31:34.740Z,101936.66
2023-04-26T16:34:02.045Z,101935.72
2023-04-26T16:36:29.311Z,101938.22
2023-04-26T16:38:56.758Z,101935.59
2023-04-26T16:41:24.951Z,101931.19
2023-04-26T16:43:54.128Z,101937.22
2023-04-26T16:46:21.495Z,101936.41
2023-04-26T16:48:48.979Z,101930.47
2023-04-26T16:51:16.387Z,101935.78
2023-04-26T16:53:43.693Z,101929.69
2023-04-26T16:56:11.115Z,101932.22
2023-04-26T16:58:39.062Z,101926.84
2023-04-26T17:01:06.515Z,101942.59
2023-04-26T17:03:34.074Z,101933.81
2023-04-26T17:06:01.962Z,101938.03
2023-04-26T17:08:29.342Z,101945.78
2023-04-26T17:10:57.233Z,101954.47
2023-04-26T17:13:29.208Z,101945.56
2023-04-26T17:15:57.082Z,101952.28
2023-04-26T17:18:28.033Z,101944.94
2023-04-26T17:20:56.844Z,101950.00
2023-04-26T17:23:25.113Z,101943.69
2023-04-26T17:25:54.995Z,101938.44
2023-04-26T17:28:26.088Z,101940.13
2023-04-26T17:30:53.590Z,101941.06
2023-04-26T17:33:21.060Z,101949.78
2023-04-26T17:35:48.903Z,101946.25
2023-04-26T17:38:17.131Z,101941.75
2023-04-26T17:40:44.477Z,101938.09
2023-04-26T17:43:11.905Z,101945.78
2023-04-26T17:45:39.235Z,101948.34
2023-04-26T17:48:11.241Z,101956.16
2023-04-26T17:50:43.672Z,101951.84
2023-04-26T17:53:14.604Z,101960.63
2023-04-26T17:55:41.857Z,101963.25
2023-04-26T17:58:09.110Z,101957.97
2023-04-26T18:00:36.352Z,101969.94
2023-04-26T18:03:05.359Z,101954.06
2023-04-26T18:05:32.853Z,101957.44
2023-04-26T18:08:00.110Z,101966.91
2023-04-26T18:10:27.433Z,101964.97
2023-04-26T18:12:55.019Z,101969.94
2023-04-26T18:15:22.588Z,101976.50
2023-04-26T18:17:49.905Z,101975.34
2023-04-26T18:20:17.670Z,101985.56
2023-04-26T18:22:45.192Z,101979.16
2023-04-26T18:25:12.631Z,101985.88
2023-04-26T18:27:40.121Z,101983.91
2023-04-26T18:30:08.323Z,101989.94
2023-04-26T18:32:35.920Z,101979.41
2023-04-26T18:35:06.340Z,101981.78
2023-04-26T18:37:33.909Z,101986.88
2023-04-26T18:40:01.250Z,101984.00
2023-04-26T18:42:28.626Z,101982.88
2023-04-26T18:44:56.729Z,101985.28
2023-04-26T18:47:24.056Z,101986.06
2023-04-26T18:49:51.669Z,101990.41
2023-04-26T18:52:18.828Z,102003.50
2023-04-26T18:54:46.322Z,102006.94
2023-04-26T18:57:15.224Z,102010.13
2023-04-26T18:59:42.832Z,102013.31
2023-04-26T19:02:10.376Z,102017.22
2023-04-26T19:04:38.285Z,102008.16
2023-04-26T19:07:09.233Z,102008.91
2023-04-26T19:09:50.470Z,102003.63
2023-04-26T19:12:23.073Z,102010.44
2023-04-26T19:14:50.666Z,102010.38
2023-04-26T19:17:18.673Z,102003.38
2023-04-26T19:19:46.883Z,102004.34
2023-04-26T19:22:14.315Z,102007.81
2023-04-26T19:24:42.003Z,101997.44
2023-04-26T19:27:12.769Z,102008.78
2023-04-26T19:29:39.889Z,102014.78
2023-04-26T19:32:10.085Z,102024.41
2023-04-26T19:34:38.951Z,102024.22
2023-04-26T19:37:07.385Z,102018.84
2023-04-26T19:39:34.798Z,102020.50
2023-04-26T19:42:03.050Z,102024.59
2023-04-26T19:44:31.274Z,102030.47
2023-04-26T19:46:58.815Z,102027.63
2023-04-26T19:49:28.584Z,102025.72
2023-04-26T19:51:56.650Z,102029.91
2023-04-26T19:54:24.031Z,102022.78
2023-04-26T19:56:51.773Z,102029.59
2023-04-26T19:59:19.192Z,102036.34
2023-04-26T20:01:46.545Z,102033.59
2023-04-26T20:04:14.015Z,102029.88
2023-04-26T20:06:41.897Z,102036.69
2023-04-26T20:09:10.784Z,102038.25
2023-04-26T20:11:38.389Z,102042.41
2023-04-26T20:14:05.847Z,102038.69
2023-04-26T20:16:33.483Z,102045.41
2023-04-26T20:19:01.582Z,102042.53
2023-04-26T20:21:29.320Z,102046.63
2023-04-26T20:23:56.913Z,102030.84
2023-04-26T20:26:24.233Z,102034.19
2023-04-26T20:28:51.503Z,102031.50
2023-04-26T20:31:18.929Z,102031.38
2023-04-26T20:33:46.248Z,102042.50
2023-04-26T20:36:14.258Z,102039.75
2023-04-26T20:38:43.427Z,102045.66
2023-04-26T20:41:11.857Z,102041.16
2023-04-26T20:43:39.418Z,102039.22
2023-04-26T20:46:06.870Z,102039.09
2023-04-26T20:48:35.994Z,102050.16
2023-04-26T20:51:03.475Z,102043.66
2023-04-26T20:53:32.223Z,102046.84
2023-04-26T20:56:02.712Z,102049.25
2023-04-26T20:58:30.114Z,102045.59
2023-04-26T21:00:59.382Z,102044.56
2023-04-26T21:03:27.000Z,102048.72
2023-04-26T21:05:54.534Z,102043.31
2023-04-26T21:08:22.018Z,102052.84
2023-04-26T21:10:49.288Z,102043.97
2023-04-26T21:13:16.706Z,102046.34
2023-04-26T21:15:44.067Z,102047.81
2023-04-26T21:18:12.518Z,102037.19
2023-04-26T21:20:40.705Z,102043.06
2023-04-26T21:23:08.182Z,102041.19
2023-04-26T21:25:37.739Z,102039.41
2023-04-26T21:28:05.086Z,102041.13
2023-04-26T21:30:32.539Z,102040.97
2023-04-26T21:32:59.934Z,102048.88
2023-04-26T21:35:27.518Z,102050.44
2023-04-26T21:37:55.194Z,102046.84
2023-04-26T21:40:22.871Z,102044.06
2023-04-26T21:43:03.871Z,102044.06
2023-04-26T21:45:32.401Z,102050.22
2023-04-26T21:48:00.053Z,102036.41
2023-04-26T21:50:28.162Z,102031.13
2023-04-26T21:52:55.639Z,102032.00
2023-04-26T21:55:23.013Z,102039.69
2023-04-26T21:57:50.342Z,102043.03
2023-04-26T22:00:18.766Z,102040.28
2023-04-26T22:02:47.421Z,102047.94
2023-04-26T22:05:14.804Z,102046.88
2023-04-26T22:07:42.116Z,102047.63
2023-04-26T22:10:09.872Z,102045.81
2023-04-26T22:12:37.103Z,102048.44
2023-04-26T22:15:04.769Z,102050.06
2023-04-26T22:17:32.094Z,102050.81
2023-04-26T22:19:59.629Z,102054.97
2023-04-26T22:22:26.957Z,102055.63
2023-04-26T22:24:54.249Z,102052.06
2023-04-26T22:27:21.616Z,102065.88
2023-04-26T22:29:48.911Z,102069.25
2023-04-26T22:32:16.383Z,102069.91
2023-04-26T22:34:44.007Z,102075.91
2023-04-26T22:37:20.779Z,102071.53
2023-04-26T22:39:49.382Z,102079.28
2023-04-26T22:42:16.675Z,102077.38
2023-04-26T22:44:44.034Z,102081.78
2023-04-26T22:47:11.553Z,102077.47
2023-04-26T22:49:38.817Z,102086.16
2023-04-26T22:52:12.003Z,102078.34
2023-04-26T22:54:47.700Z,102081.69
2023-04-26T22:57:14.895Z,102087.66
2023-04-26T22:59:42.346Z,102083.16
2023-04-26T23:02:09.735Z,102084.00
2023-04-26T23:04:37.008Z,102081.22
2023-04-26T23:07:04.306Z,102086.41
2023-04-26T23:09:32.216Z,102089.84
2023-04-26T23:11:59.689Z,102079.34
2023-04-26T23:14:29.585Z,102078.47
2023-04-26T23:16:58.750Z,102079.16
2023-04-26T23:19:26.854Z,102083.50
2023-04-26T23:21:54.278Z,102086.00
2023-04-26T23:24:21.576Z,102086.75
2023-04-26T23:26:48.860Z,102088.28
2023-04-26T23:29:16.185Z,102091.56
2023-04-26T23:31:43.802Z,102098.44
2023-04-26T23:34:11.386Z,102091.28
2023-04-26T23:36:38.660Z,102094.63
2023-04-26T23:39:06.125Z,102092.78
2023-04-26T23:41:42.266Z,102102.16
2023-04-26T23:44:09.780Z,102094.31
2023-04-26T23:46:37.052Z,102098.53
2023-04-26T23:49:04.370Z,102096.72
2023-04-26T23:51:32.517Z,102097.53
2023-04-26T23:53:59.816Z,102101.06
2023-04-26T23:56:27.230Z,102096.81
2023-04-26T23:58:54.625Z,102104.63
